La rose des vents
Donnes mto: Semaine 01/12/08 - 07/12/08 (S 49)
Date Horaire Temp. E. Hum. E. P.atmo. Pluie Vent 1mn Direction Ensoleilleme Ev.Tr. Solaire P. de rose Temp au vent Rafales
01/12/2008 00:00 4,6 C 96 % 992,2 hPa 1,4 l/m 2,0 km/h (1 Bft) O-NO 0,00 h 0,000 mm 0 W/m 4,0 C 4,4 C 3,5 km/h (1 Bft)
01/12/2008 01:00 4,9 C 96 % 991,2 hPa 3,0 l/m 3,5 km/h (1 Bft) O-SO 0,00 h 0,000 mm 0 W/m 4,4 C 4,3 C 4,8 km/h (1 Bft)
01/12/2008 02:00 4,9 C 96 % 991,7 hPa 5,4 l/m 4,5 km/h (1 Bft) O 0,00 h 0,000 mm 0 W/m 4,3 C 4,1 C 6,6 km/h (2 Bft)
01/12/2008 03:00 4,6 C 96 % 992,0 hPa 0,6 l/m 1,6 km/h (1 Bft) SE 0,00 h 0,000 mm 0 W/m 4,0 C 4,5 C 2,7 km/h (1 Bft)
01/12/2008 04:00 4,4 C 96 % 992,0 hPa 0,0 l/m 3,3 km/h (1 Bft) O 0,00 h 0,000 mm 0 W/m 3,9 C 4,0 C 5,2 km/h (1 Bft)
01/12/2008 05:00 4,5 C 97 % 992,3 hPa 0,0 l/m 10,6 km/h (2 Bft) SO 0,00 h 0,000 mm 0 W/m 4,0 C 2,4 C 14,3 km/h (3 Bft)
01/12/2008 06:00 4,9 C 97 % 992,6 hPa 0,0 l/m 30,5 km/h (5 Bft) SO 0,00 h 0,000 mm 0 W/m 4,5 C -0,1 C 38,7 km/h (5 Bft)
01/12/2008 07:00 5,0 C 96 % 993,6 hPa 0,0 l/m 10,9 km/h (2 Bft) O-SO 0,05 h 0,025 mm 12 W/m 4,4 C 3,0 C 15,7 km/h (3 Bft)
01/12/2008 08:00 5,5 C 95 % 994,8 hPa 0,0 l/m 9,8 km/h (2 Bft) O-SO 1,00 h 0,000 mm 92 W/m 4,8 C 3,6 C 14,6 km/h (3 Bft)
01/12/2008 09:00 6,1 C 93 % 995,5 hPa 0,0 l/m 21,8 km/h (4 Bft) SO 0,47 h 0,051 mm 129 W/m 5,1 C 2,2 C 28,5 km/h (4 Bft)
01/12/2008 10:00 7,4 C 91 % 996,4 hPa 0,0 l/m 20,1 km/h (4 Bft) SO 0,53 h 0,076 mm 223 W/m 6,0 C 4,1 C 25,6 km/h (4 Bft)
01/12/2008 11:00 9,4 C 99 % 996,9 hPa 0,0 l/m 21,6 km/h (4 Bft) SO 0,98 h 0,127 mm 375 W/m 9,2 C 6,5 C 27,9 km/h (4 Bft)
01/12/2008 12:00 9,5 C 97 % 997,2 hPa 0,0 l/m 28,0 km/h (4 Bft) SO 1,00 h 0,229 mm 386 W/m 9,0 C 6,2 C 36,0 km/h (5 Bft)
01/12/2008 13:00 10,5 C 100 % 997,3 hPa 0,0 l/m 27,9 km/h (4 Bft) SO 1,00 h 0,254 mm 366 W/m 10,5 C 10,5 C 35,6 km/h (5 Bft)
01/12/2008 14:00 10,5 C 100 % 997,8 hPa 0,0 l/m 26,7 km/h (4 Bft) SO 1,00 h 0,000 mm 283 W/m 10,5 C 10,5 C 34,5 km/h (5 Bft)
01/12/2008 15:00 10,2 C 100 % 998,7 hPa 0,0 l/m 23,9 km/h (4 Bft) SO 1,00 h 0,000 mm 166 W/m 10,2 C 9,7 C 31,6 km/h (5 Bft)
01/12/2008 16:00 9,2 C 84 % 999,8 hPa 0,0 l/m 18,0 km/h (3 Bft) SO 0,77 h 0,000 mm 41 W/m 6,4 C 6,6 C 23,6 km/h (4 Bft)
01/12/2008 17:00 7,3 C 73 % 1000,8 hPa 0,0 l/m 17,7 km/h (3 Bft) SO 0,00 h 0,102 mm 0 W/m 2,7 C 4,3 C 21,9 km/h (4 Bft)
01/12/2008 18:00 6,5 C 75 % 1001,7 hPa 0,0 l/m 22,1 km/h (4 Bft) SO 0,00 h 0,051 mm 0 W/m 2,3 C 2,7 C 26,9 km/h (4 Bft)
01/12/2008 19:00 6,0 C 77 % 1002,3 hPa 0,0 l/m 19,1 km/h (3 Bft) O-SO 0,00 h 0,051 mm 0 W/m 2,2 C 2,5 C 24,6 km/h (4 Bft)
01/12/2008 20:00 4,9 C 80 % 1002,7 hPa 0,0 l/m 13,0 km/h (3 Bft) O-SO 0,00 h 0,051 mm 0 W/m 1,7 C 2,1 C 18,0 km/h (3 Bft)
01/12/2008 21:00 4,5 C 80 % 1003,2 hPa 0,0 l/m 11,0 km/h (2 Bft) O 0,00 h 0,025 mm 0 W/m 1,4 C 1,9 C 16,7 km/h (3 Bft)
01/12/2008 22:00 4,2 C 80 % 1003,9 hPa 0,0 l/m 10,8 km/h (2 Bft) O 0,00 h 0,025 mm 0 W/m 1,0 C 1,6 C 15,3 km/h (3 Bft)
01/12/2008 23:00 4,0 C 80 % 1004,5 hPa 0,0 l/m 9,5 km/h (2 Bft) O-NO 0,00 h 0,025 mm 0 W/m 0,8 C 1,8 C 12,4 km/h (3 Bft)
02/12/2008 00:00 3,8 C 77 % 1004,8 hPa 0,0 l/m 4,1 km/h (1 Bft) O 0,00 h 0,025 mm 0 W/m 0,1 C 3,0 C 5,7 km/h (1 Bft)
02/12/2008 01:00 3,7 C 73 % 1004,7 hPa 0,0 l/m 2,5 km/h (1 Bft) O-SO 0,00 h 0,025 mm 0 W/m -0,6 C 3,3 C 3,4 km/h (1 Bft)
02/12/2008 02:00 3,6 C 73 % 1005,0 hPa 0,0 l/m 3,7 km/h (1 Bft) O-SO 0,00 h 0,025 mm 0 W/m -0,8 C 2,9 C 5,1 km/h (1 Bft)
02/12/2008 03:00 3,7 C 74 % 1004,8 hPa 0,0 l/m 3,9 km/h (1 Bft) NO 0,00 h 0,025 mm 0 W/m -0,6 C 3,1 C 5,4 km/h (1 Bft)
02/12/2008 04:00 3,6 C 74 % 1004,8 hPa 0,0 l/m 5,7 km/h (1 Bft) S 0,00 h 0,025 mm 0 W/m -0,7 C 2,3 C 7,0 km/h (2 Bft)
02/12/2008 05:00 3,5 C 73 % 1005,2 hPa 0,0 l/m 3,0 km/h (1 Bft) NO 0,00 h 0,025 mm 0 W/m -0,9 C 3,2 C 4,0 km/h (1 Bft)
02/12/2008 06:00 3,3 C 72 % 1005,5 hPa 0,0 l/m 2,9 km/h (1 Bft) N-NO 0,00 h 0,025 mm 0 W/m -1,2 C 3,1 C 4,0 km/h (1 Bft)
02/12/2008 07:00 3,6 C 71 % 1006,1 hPa 0,0 l/m 4,2 km/h (1 Bft) O-NO 0,03 h 0,025 mm 8 W/m -1,1 C 2,9 C 5,6 km/h (1 Bft)
02/12/2008 08:00 4,2 C 70 % 1006,4 hPa 0,0 l/m 5,9 km/h (2 Bft) O-NO 0,78 h 0,025 mm 58 W/m -0,9 C 2,9 C 8,5 km/h (2 Bft)
02/12/2008 09:00 5,0 C 67 % 1007,0 hPa 0,0 l/m 4,1 km/h (1 Bft) N-NO 1,00 h 0,051 mm 143 W/m -0,5 C 4,5 C 5,8 km/h (2 Bft)
02/12/2008 10:00 7,3 C 61 % 1007,8 hPa 0,0 l/m 1,1 km/h (1 Bft) N-NO 0,42 h 0,076 mm 182 W/m 0,4 C 7,3 C 2,2 km/h (1 Bft)
02/12/2008 11:00 8,4 C 64 % 1007,7 hPa 0,0 l/m 1,1 km/h (1 Bft) N-NE 0,10 h 0,076 mm 193 W/m 1,9 C 8,4 C 2,7 km/h (1 Bft)
02/12/2008 12:00 8,6 C 64 % 1007,8 hPa 0,0 l/m 2,7 km/h (1 Bft) E-NE 0,73 h 0,102 mm 237 W/m 2,2 C 8,5 C 4,8 km/h (1 Bft)
02/12/2008 13:00 9,5 C 61 % 1007,7 hPa 0,0 l/m 1,2 km/h (1 Bft) NE 0,08 h 0,127 mm 193 W/m 2,2 C 9,5 C 2,2 km/h (1 Bft)
02/12/2008 14:00 9,7 C 62 % 1007,5 hPa 0,0 l/m 1,8 km/h (1 Bft) E-NE 0,62 h 0,102 mm 215 W/m 2,8 C 9,6 C 3,0 km/h (1 Bft)
02/12/2008 15:00 9,2 C 66 % 1007,6 hPa 0,0 l/m 4,1 km/h (1 Bft) NE 0,75 h 0,102 mm 161 W/m 3,1 C 9,0 C 6,3 km/h (2 Bft)
02/12/2008 16:00 8,7 C 70 % 1008,0 hPa 0,0 l/m 1,5 km/h (1 Bft) N-NE 0,62 h 0,102 mm 36 W/m 3,5 C 8,7 C 3,1 km/h (1 Bft)
02/12/2008 17:00 6,6 C 73 % 1008,4 hPa 0,0 l/m 2,6 km/h (1 Bft) O 0,00 h 0,025 mm 5 W/m 2,2 C 6,4 C 3,8 km/h (1 Bft)
02/12/2008 18:00 5,2 C 81 % 1008,8 hPa 0,0 l/m 7,1 km/h (2 Bft) O 0,00 h 0,000 mm 0 W/m 2,2 C 3,6 C 9,5 km/h (2 Bft)
02/12/2008 19:00 4,6 C 80 % 1009,0 hPa 0,0 l/m 7,6 km/h (2 Bft) O-NO 0,00 h 0,025 mm 0 W/m 1,5 C 2,8 C 10,4 km/h (2 Bft)
02/12/2008 20:00 4,6 C 78 % 1009,1 hPa 0,0 l/m 6,1 km/h (2 Bft) O-NO 0,00 h 0,025 mm 0 W/m 1,1 C 3,3 C 9,4 km/h (2 Bft)
02/12/2008 21:00 4,3 C 78 % 1009,0 hPa 0,0 l/m 6,0 km/h (2 Bft) NO 0,00 h 0,025 mm 0 W/m 0,8 C 3,0 C 9,0 km/h (2 Bft)
02/12/2008 22:00 4,2 C 76 % 1008,8 hPa 0,0 l/m 4,5 km/h (1 Bft) NO 0,00 h 0,025 mm 0 W/m 0,3 C 3,4 C 6,3 km/h (2 Bft)
02/12/2008 23:00 3,8 C 74 % 1008,6 hPa 0,0 l/m 4,5 km/h (1 Bft) O-NO 0,00 h 0,025 mm 0 W/m -0,4 C 3,1 C 6,6 km/h (2 Bft)
03/12/2008 00:00 3,3 C 73 % 1008,3 hPa 0,0 l/m 3,5 km/h (1 Bft) O-NO 0,00 h 0,025 mm 0 W/m -1,0 C 2,9 C 5,3 km/h (1 Bft)
03/12/2008 01:00 3,3 C 74 % 1007,7 hPa 0,0 l/m 4,3 km/h (1 Bft) NO 0,00 h 0,025 mm 0 W/m -0,9 C 2,4 C 6,3 km/h (2 Bft)
03/12/2008 02:00 2,9 C 75 % 1007,6 hPa 0,0 l/m 4,1 km/h (1 Bft) O-NO 0,00 h 0,025 mm 0 W/m -1,1 C 2,1 C 6,2 km/h (2 Bft)
03/12/2008 03:00 2,8 C 75 % 1007,6 hPa 0,0 l/m 6,0 km/h (2 Bft) O-NO 0,00 h 0,025 mm 0 W/m -1,1 C 1,2 C 8,7 km/h (2 Bft)
03/12/2008 04:00 2,7 C 74 % 1007,4 hPa 0,0 l/m 4,4 km/h (1 Bft) NO 0,00 h 0,025 mm 0 W/m -1,4 C 1,9 C 6,5 km/h (2 Bft)
03/12/2008 05:00 2,2 C 74 % 1007,1 hPa 0,0 l/m 3,8 km/h (1 Bft) O-NO 0,00 h 0,025 mm 0 W/m -1,9 C 1,5 C 5,9 km/h (2 Bft)
03/12/2008 06:00 2,5 C 72 % 1007,2 hPa 0,0 l/m 7,7 km/h (2 Bft) O-NO 0,00 h 0,025 mm 0 W/m -2,1 C 0,5 C 11,2 km/h (2 Bft)
03/12/2008 07:00 2,7 C 71 % 1007,2 hPa 0,0 l/m 3,9 km/h (1 Bft) O-NO 0,02 h 0,025 mm 7 W/m -2,0 C 2,0 C 6,1 km/h (2 Bft)
03/12/2008 08:00 3,1 C 69 % 1007,2 hPa 0,0 l/m 2,4 km/h (1 Bft) O-NO 0,90 h 0,025 mm 73 W/m -2,0 C 2,9 C 3,7 km/h (1 Bft)
03/12/2008 09:00 5,9 C 63 % 1007,2 hPa 0,0 l/m 1,2 km/h (1 Bft) NO 1,00 h 0,025 mm 224 W/m -0,7 C 5,9 C 2,1 km/h (1 Bft)
03/12/2008 10:00 6,9 C 61 % 1007,5 hPa 0,0 l/m 1,5 km/h (1 Bft) E-SE 0,97 h 0,102 mm 261 W/m -0,2 C 6,8 C 3,0 km/h (1 Bft)
03/12/2008 11:00 8,0 C 60 % 1007,0 hPa 0,0 l/m 1,0 km/h (0 Bft) S 1,00 h 0,127 mm 376 W/m 0,7 C 8,0 C 2,3 km/h (1 Bft)
03/12/2008 12:00 9,9 C 59 % 1006,1 hPa 0,0 l/m 3,2 km/h (1 Bft) E 1,00 h 0,178 mm 361 W/m 2,3 C 9,8 C 5,5 km/h (1 Bft)
03/12/2008 13:00 10,1 C 59 % 1005,5 hPa 0,0 l/m 3,9 km/h (1 Bft) S-SE 0,98 h 0,178 mm 337 W/m 2,4 C 10,0 C 6,7 km/h (2 Bft)
03/12/2008 14:00 9,3 C 63 % 1005,0 hPa 0,0 l/m 3,2 km/h (1 Bft) S-SE 0,53 h 0,178 mm 179 W/m 2,5 C 9,2 C 4,9 km/h (1 Bft)
03/12/2008 15:00 9,1 C 64 % 1004,8 hPa 0,0 l/m 2,2 km/h (1 Bft) SE 0,73 h 0,102 mm 145 W/m 2,8 C 9,1 C 3,7 km/h (1 Bft)
03/12/2008 16:00 8,6 C 64 % 1004,9 hPa 0,0 l/m 1,7 km/h (1 Bft) S-SE 0,30 h 0,076 mm 32 W/m 2,1 C 8,6 C 2,4 km/h (1 Bft)
03/12/2008 17:00 6,6 C 67 % 1005,5 hPa 0,0 l/m 7,6 km/h (2 Bft) O-SO 0,00 h 0,025 mm 0 W/m 0,9 C 5,2 C 10,2 km/h (2 Bft)
03/12/2008 18:00 5,3 C 70 % 1005,9 hPa 0,0 l/m 3,0 km/h (1 Bft) O-NO 0,00 h 0,025 mm 0 W/m 0,2 C 4,8 C 4,6 km/h (1 Bft)
03/12/2008 19:00 4,8 C 77 % 1006,3 hPa 0,0 l/m 2,3 km/h (1 Bft) N-NO 0,00 h 0,025 mm 0 W/m 1,0 C 4,6 C 4,1 km/h (1 Bft)
03/12/2008 20:00 4,9 C 75 % 1006,5 hPa 0,0 l/m 3,5 km/h (1 Bft) N-NO 0,00 h 0,025 mm 0 W/m 0,9 C 4,5 C 4,9 km/h (1 Bft)
03/12/2008 21:00 4,4 C 72 % 1006,6 hPa 0,0 l/m 3,9 km/h (1 Bft) NO 0,00 h 0,025 mm 0 W/m -0,2 C 3,8 C 5,4 km/h (1 Bft)
03/12/2008 22:00 4,5 C 71 % 1006,7 hPa 0,0 l/m 5,3 km/h (1 Bft) NO 0,00 h 0,025 mm 0 W/m -0,4 C 3,5 C 7,7 km/h (2 Bft)
03/12/2008 23:00 4,8 C 66 % 1006,8 hPa 0,0 l/m 6,1 km/h (2 Bft) N-NO 0,00 h 0,025 mm 0 W/m -0,9 C 3,5 C 8,9 km/h (2 Bft)
04/12/2008 00:00 4,8 C 66 % 1006,8 hPa 0,0 l/m 7,0 km/h (2 Bft) NO 0,00 h 0,025 mm 0 W/m -1,0 C 3,2 C 10,2 km/h (2 Bft)
04/12/2008 01:00 5,0 C 65 % 1006,6 hPa 0,0 l/m 6,6 km/h (2 Bft) NO 0,00 h 0,025 mm 0 W/m -1,1 C 3,6 C 9,6 km/h (2 Bft)
04/12/2008 02:00 4,8 C 64 % 1006,7 hPa 0,0 l/m 5,9 km/h (2 Bft) NO 0,00 h 0,051 mm 0 W/m -1,4 C 3,5 C 8,7 km/h (2 Bft)
04/12/2008 03:00 4,6 C 65 % 1006,4 hPa 0,0 l/m 5,7 km/h (1 Bft) NO 0,00 h 0,025 mm 0 W/m -1,3 C 3,4 C 8,4 km/h (2 Bft)
04/12/2008 04:00 4,5 C 68 % 1006,2 hPa 0,0 l/m 6,0 km/h (2 Bft) O-NO 0,00 h 0,025 mm 0 W/m -1,0 C 3,2 C 8,8 km/h (2 Bft)
04/12/2008 05:00 3,7 C 70 % 1006,2 hPa 0,0 l/m 5,3 km/h (1 Bft) O-NO 0,00 h 0,025 mm 0 W/m -1,2 C 2,6 C 7,8 km/h (2 Bft)
04/12/2008 06:00 3,3 C 74 % 1006,1 hPa 0,0 l/m 5,2 km/h (1 Bft) NO 0,00 h 0,025 mm 0 W/m -1,0 C 2,1 C 7,4 km/h (2 Bft)
04/12/2008 07:00 4,1 C 72 % 1006,1 hPa 0,0 l/m 6,0 km/h (2 Bft) O-NO 0,00 h 0,025 mm 8 W/m -0,4 C 2,8 C 8,9 km/h (2 Bft)
04/12/2008 08:00 4,0 C 75 % 1006,0 hPa 0,0 l/m 5,7 km/h (1 Bft) O-NO 0,43 h 0,025 mm 43 W/m -0,0 C 2,7 C 8,4 km/h (2 Bft)
04/12/2008 09:00 5,3 C 75 % 1006,2 hPa 0,0 l/m 3,7 km/h (1 Bft) N-NO 0,28 h 0,025 mm 120 W/m 1,1 C 4,7 C 5,7 km/h (1 Bft)
04/12/2008 10:00 8,8 C 66 % 1006,4 hPa 0,0 l/m 0,6 km/h (0 Bft) E 0,93 h 0,051 mm 300 W/m 2,9 C 8,8 C 1,9 km/h (1 Bft)
04/12/2008 11:00 10,6 C 64 % 1005,6 hPa 0,0 l/m 5,3 km/h (1 Bft) S-SE 1,00 h 0,152 mm 369 W/m 4,0 C 10,5 C 8,3 km/h (2 Bft)
04/12/2008 12:00 10,9 C 62 % 1004,6 hPa 0,0 l/m 11,5 km/h (2 Bft) SO 1,00 h 0,203 mm 331 W/m 4,0 C 10,9 C 16,1 km/h (3 Bft)
04/12/2008 13:00 10,7 C 67 % 1003,3 hPa 0,0 l/m 11,3 km/h (2 Bft) S-SO 0,32 h 0,203 mm 189 W/m 4,7 C 10,7 C 15,2 km/h (3 Bft)
04/12/2008 14:00 10,2 C 69 % 1002,5 hPa 0,0 l/m 13,5 km/h (3 Bft) SO 0,05 h 0,127 mm 138 W/m 4,9 C 10,1 C 17,6 km/h (3 Bft)
04/12/2008 15:00 9,7 C 70 % 1001,7 hPa 0,0 l/m 20,2 km/h (4 Bft) SO 0,00 h 0,127 mm 78 W/m 4,4 C 6,9 C 25,9 km/h (4 Bft)
04/12/2008 16:00 8,9 C 73 % 1001,9 hPa 0,0 l/m 18,4 km/h (3 Bft) SO 0,00 h 0,102 mm 25 W/m 4,3 C 6,2 C 23,7 km/h (4 Bft)
04/12/2008 17:00 8,1 C 74 % 1001,4 hPa 0,0 l/m 21,3 km/h (4 Bft) SO 0,00 h 0,076 mm 0 W/m 3,8 C 4,9 C 27,8 km/h (4 Bft)
04/12/2008 18:00 8,2 C 68 % 1001,5 hPa 0,0 l/m 17,4 km/h (3 Bft) O-SO 0,00 h 0,076 mm 0 W/m 2,8 C 5,5 C 24,8 km/h (4 Bft)
04/12/2008 19:00 9,1 C 70 % 1001,7 hPa 0,0 l/m 19,1 km/h (3 Bft) O-SO 0,00 h 0,076 mm 0 W/m 3,9 C 6,4 C 27,2 km/h (4 Bft)
04/12/2008 20:00 9,0 C 73 % 1002,0 hPa 0,0 l/m 13,8 km/h (3 Bft) O-SO 0,00 h 0,076 mm 0 W/m 4,3 C 6,8 C 19,1 km/h (3 Bft)
04/12/2008 21:00 8,4 C 80 % 1001,9 hPa 0,2 l/m 9,5 km/h (2 Bft) O 0,00 h 0,051 mm 0 W/m 5,0 C 6,8 C 13,5 km/h (3 Bft)
04/12/2008 22:00 7,9 C 87 % 1001,3 hPa 0,8 l/m 5,5 km/h (1 Bft) O 0,00 h 0,025 mm 0 W/m 5,8 C 7,2 C 6,8 km/h (2 Bft)
04/12/2008 23:00 7,9 C 90 % 1000,4 hPa 0,4 l/m 4,9 km/h (1 Bft) NO 0,00 h 0,025 mm 0 W/m 6,4 C 7,3 C 6,6 km/h (2 Bft)
05/12/2008 00:00 8,1 C 92 % 999,5 hPa 0,6 l/m 4,0 km/h (1 Bft) O-SO 0,00 h 0,025 mm 0 W/m 6,8 C 7,9 C 6,0 km/h (2 Bft)
05/12/2008 01:00 8,1 C 93 % 998,6 hPa 0,8 l/m 3,4 km/h (1 Bft) O-SO 0,00 h 0,025 mm 0 W/m 6,9 C 7,9 C 4,7 km/h (1 Bft)
05/12/2008 02:00 7,7 C 93 % 998,6 hPa 1,4 l/m 1,3 km/h (1 Bft) O-SO 0,00 h 0,000 mm 0 W/m 6,7 C 7,7 C 2,1 km/h (1 Bft)
05/12/2008 03:00 8,0 C 94 % 997,9 hPa 0,0 l/m 4,2 km/h (1 Bft) O-SO 0,00 h 0,000 mm 0 W/m 7,1 C 7,5 C 6,8 km/h (2 Bft)
05/12/2008 04:00 8,2 C 94 % 997,5 hPa 0,0 l/m 3,3 km/h (1 Bft) E-NE 0,00 h 0,000 mm 0 W/m 7,4 C 8,0 C 5,1 km/h (1 Bft)
05/12/2008 05:00 8,7 C 95 % 997,0 hPa 0,0 l/m 2,4 km/h (1 Bft) SE 0,00 h 0,000 mm 0 W/m 8,0 C 8,6 C 3,6 km/h (1 Bft)
05/12/2008 06:00 9,5 C 99 % 997,0 hPa 0,0 l/m 10,4 km/h (2 Bft) SO 0,00 h 0,000 mm 0 W/m 9,3 C 8,0 C 14,1 km/h (3 Bft)
05/12/2008 07:00 10,0 C 98 % 997,1 hPa 0,4 l/m 17,1 km/h (3 Bft) SO 0,00 h 0,025 mm 0 W/m 9,7 C 8,5 C 22,5 km/h (4 Bft)
05/12/2008 08:00 9,9 C 99 % 997,2 hPa 0,8 l/m 18,6 km/h (3 Bft) SO 0,00 h 0,025 mm 17 W/m 9,8 C 7,8 C 25,3 km/h (4 Bft)
05/12/2008 09:00 9,4 C 98 % 997,3 hPa 0,0 l/m 17,6 km/h (3 Bft) O-SO 0,00 h 0,025 mm 62 W/m 9,2 C 7,0 C 24,3 km/h (4 Bft)
05/12/2008 10:00 9,4 C 98 % 997,8 hPa 0,0 l/m 12,8 km/h (3 Bft) O-SO 0,00 h 0,051 mm 81 W/m 9,1 C 7,5 C 18,3 km/h (3 Bft)
05/12/2008 11:00 9,7 C 97 % 996,9 hPa 0,0 l/m 19,8 km/h (4 Bft) O-SO 0,00 h 0,051 mm 145 W/m 9,3 C 7,0 C 27,3 km/h (4 Bft)
05/12/2008 12:00 12,3 C 100 % 996,1 hPa 0,0 l/m 21,7 km/h (4 Bft) O-SO 0,92 h 0,102 mm 378 W/m 12,3 C 12,1 C 30,1 km/h (5 Bft)
05/12/2008 13:00 14,6 C 100 % 996,0 hPa 0,0 l/m 21,0 km/h (4 Bft) O-SO 1,00 h 0,000 mm 364 W/m 14,6 C 14,6 C 30,0 km/h (5 Bft)
05/12/2008 14:00 14,6 C 100 % 996,4 hPa 0,0 l/m 21,3 km/h (4 Bft) O-SO 1,00 h 0,000 mm 282 W/m 14,6 C 14,6 C 28,5 km/h (4 Bft)
05/12/2008 15:00 13,5 C 98 % 997,0 hPa 0,0 l/m 23,7 km/h (4 Bft) SO 1,00 h 0,305 mm 162 W/m 13,1 C 13,5 C 30,8 km/h (5 Bft)
05/12/2008 16:00 12,1 C 73 % 998,0 hPa 0,0 l/m 28,0 km/h (4 Bft) SO 0,75 h 0,203 mm 39 W/m 7,1 C 12,1 C 35,4 km/h (5 Bft)
05/12/2008 17:00 11,3 C 64 % 999,0 hPa 0,0 l/m 32,1 km/h (5 Bft) SO 0,00 h 0,178 mm 0 W/m 4,6 C 11,3 C 41,0 km/h (6 Bft)
05/12/2008 18:00 10,3 C 64 % 1000,3 hPa 0,0 l/m 31,1 km/h (5 Bft) SO 0,00 h 0,152 mm 0 W/m 3,7 C 10,3 C 39,1 km/h (6 Bft)
05/12/2008 19:00 10,1 C 63 % 1001,3 hPa 0,0 l/m 32,7 km/h (5 Bft) SO 0,00 h 0,127 mm 0 W/m 3,4 C 8,8 C 40,9 km/h (6 Bft)
05/12/2008 20:00 9,6 C 68 % 1002,2 hPa 0,0 l/m 26,0 km/h (4 Bft) SO 0,00 h 0,127 mm 0 W/m 4,0 C 6,3 C 32,3 km/h (5 Bft)
05/12/2008 21:00 8,4 C 72 % 1002,5 hPa 0,0 l/m 18,2 km/h (3 Bft) S-SO 0,00 h 0,102 mm 0 W/m 3,7 C 5,6 C 22,8 km/h (4 Bft)
05/12/2008 22:00 8,3 C 71 % 1002,5 hPa 0,0 l/m 19,6 km/h (3 Bft) SO 0,00 h 0,051 mm 0 W/m 3,3 C 5,3 C 24,5 km/h (4 Bft)
05/12/2008 23:00 8,2 C 68 % 1003,0 hPa 0,0 l/m 18,2 km/h (3 Bft) SO 0,00 h 0,076 mm 0 W/m 2,7 C 5,4 C 22,2 km/h (4 Bft)
06/12/2008 00:00 8,7 C 60 % 1003,0 hPa 0,0 l/m 9,5 km/h (2 Bft) O-SO 0,00 h 0,076 mm 0 W/m 1,4 C 7,4 C 13,4 km/h (3 Bft)
06/12/2008 01:00 7,2 C 66 % 1003,1 hPa 0,0 l/m 3,9 km/h (1 Bft) S-SE 0,00 h 0,051 mm 0 W/m 1,3 C 6,7 C 5,9 km/h (2 Bft)
06/12/2008 02:00 6,3 C 73 % 1003,9 hPa 0,0 l/m 6,5 km/h (2 Bft) O-SO 0,00 h 0,025 mm 0 W/m 1,8 C 5,2 C 9,1 km/h (2 Bft)
06/12/2008 03:00 7,9 C 64 % 1004,2 hPa 0,0 l/m 23,2 km/h (4 Bft) SO 0,00 h 0,025 mm 0 W/m 1,5 C 4,5 C 28,9 km/h (5 Bft)
06/12/2008 04:00 8,3 C 63 % 1004,4 hPa 0,0 l/m 19,6 km/h (3 Bft) O-SO 0,00 h 0,102 mm 0 W/m 1,7 C 5,3 C 26,0 km/h (4 Bft)
06/12/2008 05:00 8,7 C 63 % 1004,4 hPa 0,0 l/m 27,3 km/h (4 Bft) SO 0,00 h 0,076 mm 0 W/m 2,0 C 5,1 C 34,6 km/h (5 Bft)
06/12/2008 06:00 9,3 C 54 % 1004,5 hPa 0,0 l/m 18,4 km/h (3 Bft) O 0,00 h 0,102 mm 0 W/m 0,4 C 6,7 C 25,5 km/h (4 Bft)
06/12/2008 07:00 10,0 C 40 % 1005,2 hPa 0,0 l/m 18,3 km/h (3 Bft) SO 0,00 h 0,102 mm 9 W/m -2,9 C 8,3 C 23,9 km/h (4 Bft)
06/12/2008 08:00 10,0 C 44 % 1006,0 hPa 0,0 l/m 12,3 km/h (3 Bft) O-SO 0,97 h 0,127 mm 69 W/m -1,7 C 9,3 C 17,9 km/h (3 Bft)
06/12/2008 09:00 11,2 C 45 % 1006,8 hPa 0,0 l/m 11,2 km/h (2 Bft) SO 1,00 h 0,102 mm 196 W/m -0,3 C 10,9 C 17,3 km/h (3 Bft)
06/12/2008 10:00 12,3 C 47 % 1007,2 hPa 0,0 l/m 12,8 km/h (3 Bft) S-SO 1,00 h 0,178 mm 306 W/m 1,4 C 12,3 C 18,2 km/h (3 Bft)
06/12/2008 11:00 13,8 C 35 % 1006,9 hPa 0,0 l/m 16,5 km/h (3 Bft) O 1,00 h 0,229 mm 382 W/m -1,3 C 13,8 C 25,6 km/h (4 Bft)
06/12/2008 12:00 14,0 C 33 % 1006,5 hPa 0,0 l/m 18,7 km/h (3 Bft) O 1,00 h 0,330 mm 403 W/m -1,8 C 14,0 C 27,4 km/h (4 Bft)
06/12/2008 13:00 14,0 C 33 % 1006,5 hPa 0,0 l/m 17,7 km/h (3 Bft) O 1,00 h 0,356 mm 371 W/m -2,2 C 14,0 C 26,9 km/h (4 Bft)
06/12/2008 14:00 13,9 C 31 % 1006,5 hPa 0,0 l/m 16,2 km/h (3 Bft) O 1,00 h 0,330 mm 289 W/m -2,7 C 13,9 C 24,0 km/h (4 Bft)
06/12/2008 15:00 13,4 C 33 % 1006,9 hPa 0,0 l/m 11,1 km/h (2 Bft) O-SO 1,00 h 0,279 mm 169 W/m -2,5 C 13,4 C 17,3 km/h (3 Bft)
06/12/2008 16:00 12,4 C 34 % 1007,2 hPa 0,0 l/m 16,6 km/h (3 Bft) O 0,73 h 0,178 mm 42 W/m -2,9 C 12,4 C 22,9 km/h (4 Bft)
06/12/2008 17:00 11,4 C 34 % 1007,5 hPa 0,0 l/m 16,7 km/h (3 Bft) O 0,00 h 0,152 mm 0 W/m -3,7 C 11,4 C 23,2 km/h (4 Bft)
06/12/2008 18:00 10,3 C 38 % 1008,4 hPa 0,0 l/m 7,7 km/h (2 Bft) O-SO 0,00 h 0,127 mm 0 W/m -3,5 C 9,9 C 10,6 km/h (2 Bft)
06/12/2008 19:00 8,8 C 44 % 1009,3 hPa 0,0 l/m 2,3 km/h (1 Bft) SE 0,00 h 0,076 mm 0 W/m -2,8 C 8,8 C 3,7 km/h (1 Bft)
06/12/2008 20:00 7,9 C 46 % 1010,1 hPa 0,0 l/m 4,3 km/h (1 Bft) O-SO 0,00 h 0,051 mm 0 W/m -2,8 C 7,4 C 5,8 km/h (2 Bft)
06/12/2008 21:00 7,4 C 47 % 1010,7 hPa 0,0 l/m 4,0 km/h (1 Bft) O 0,00 h 0,051 mm 0 W/m -3,2 C 6,9 C 5,7 km/h (1 Bft)
06/12/2008 22:00 6,7 C 48 % 1011,3 hPa 0,0 l/m 3,0 km/h (1 Bft) N 0,00 h 0,051 mm 0 W/m -3,5 C 6,6 C 4,6 km/h (1 Bft)
06/12/2008 23:00 6,9 C 47 % 1011,8 hPa 0,0 l/m 2,7 km/h (1 Bft) N 0,00 h 0,051 mm 0 W/m -3,8 C 6,7 C 3,6 km/h (1 Bft)
07/12/2008 00:00 6,8 C 46 % 1012,0 hPa 0,0 l/m 3,6 km/h (1 Bft) NO 0,00 h 0,051 mm 0 W/m -4,1 C 6,3 C 4,8 km/h (1 Bft)
07/12/2008 01:00 6,4 C 47 % 1012,1 hPa 0,0 l/m 3,4 km/h (1 Bft) NO 0,00 h 0,051 mm 0 W/m -4,0 C 6,1 C 4,8 km/h (1 Bft)
07/12/2008 02:00 5,9 C 48 % 1012,4 hPa 0,0 l/m 1,7 km/h (1 Bft) NO 0,00 h 0,051 mm 0 W/m -4,3 C 5,8 C 2,5 km/h (1 Bft)
07/12/2008 03:00 5,4 C 49 % 1012,8 hPa 0,0 l/m 3,4 km/h (1 Bft) NO 0,00 h 0,051 mm 0 W/m -4,5 C 5,1 C 4,7 km/h (1 Bft)
07/12/2008 04:00 5,5 C 48 % 1013,1 hPa 0,0 l/m 3,4 km/h (1 Bft) N-NO 0,00 h 0,051 mm 0 W/m -4,7 C 5,1 C 4,6 km/h (1 Bft)
07/12/2008 05:00 6,2 C 44 % 1013,5 hPa 0,0 l/m 5,0 km/h (1 Bft) O-NO 0,00 h 0,051 mm 0 W/m -5,2 C 5,5 C 6,3 km/h (2 Bft)
07/12/2008 06:00 5,2 C 46 % 1014,1 hPa 0,0 l/m 6,1 km/h (2 Bft) NO 0,00 h 0,051 mm 0 W/m -5,4 C 4,0 C 8,5 km/h (2 Bft)
07/12/2008 07:00 6,2 C 43 % 1014,6 hPa 0,0 l/m 6,7 km/h (2 Bft) NO 0,00 h 0,051 mm 8 W/m -5,4 C 4,9 C 9,6 km/h (2 Bft)
07/12/2008 08:00 7,3 C 48 % 1015,1 hPa 0,0 l/m 4,5 km/h (1 Bft) NO 0,90 h 0,051 mm 69 W/m -2,9 C 6,8 C 6,5 km/h (2 Bft)
07/12/2008 09:00 9,3 C 50 % 1016,1 hPa 0,0 l/m 1,3 km/h (1 Bft) N-NO 1,00 h 0,051 mm 185 W/m -0,6 C 9,3 C 3,2 km/h (1 Bft)
07/12/2008 10:00 10,8 C 46 % 1017,0 hPa 0,0 l/m 3,3 km/h (1 Bft) N-NO 1,00 h 0,102 mm 302 W/m -0,4 C 10,8 C 5,9 km/h (2 Bft)
07/12/2008 11:00 12,5 C 47 % 1017,4 hPa 0,0 l/m 6,8 km/h (2 Bft) NE 1,00 h 0,178 mm 375 W/m 1,5 C 12,5 C 10,3 km/h (2 Bft)
07/12/2008 12:00 13,1 C 52 % 1017,5 hPa 0,0 l/m 8,5 km/h (2 Bft) NE 1,00 h 0,229 mm 393 W/m 3,4 C 13,1 C 12,0 km/h (2 Bft)
07/12/2008 13:00 14,0 C 58 % 1017,7 hPa 0,0 l/m 7,1 km/h (2 Bft) E-NE 0,97 h 0,254 mm 357 W/m 5,9 C 14,0 C 10,6 km/h (2 Bft)
07/12/2008 14:00 13,4 C 67 % 1017,9 hPa 0,0 l/m 7,3 km/h (2 Bft) E-NE 0,63 h 0,203 mm 231 W/m 7,3 C 13,4 C 10,8 km/h (2 Bft)
07/12/2008 15:00 13,1 C 60 % 1018,1 hPa 0,0 l/m 6,4 km/h (2 Bft) E 0,88 h 0,152 mm 144 W/m 5,5 C 13,1 C 9,5 km/h (2 Bft)
07/12/2008 16:00 12,1 C 50 % 1018,5 hPa 0,0 l/m 2,6 km/h (1 Bft) E 0,67 h 0,102 mm 40 W/m 2,1 C 12,1 C 4,1 km/h (1 Bft)
07/12/2008 17:00 9,7 C 57 % 1019,0 hPa 0,0 l/m 4,8 km/h (1 Bft) O-NO 0,00 h 0,051 mm 0 W/m 1,5 C 9,3 C 6,9 km/h (2 Bft)
07/12/2008 18:00 7,8 C 66 % 1019,6 hPa 0,0 l/m 6,6 km/h (2 Bft) O 0,00 h 0,025 mm 0 W/m 2,0 C 6,8 C 9,2 km/h (2 Bft)
07/12/2008 19:00 7,3 C 69 % 1020,0 hPa 0,0 l/m 11,1 km/h (2 Bft) O-NO 0,00 h 0,051 mm 0 W/m 2,0 C 5,3 C 15,2 km/h (3 Bft)
07/12/2008 20:00 7,4 C 66 % 1020,3 hPa 0,0 l/m 13,7 km/h (3 Bft) O-NO 0,00 h 0,051 mm 0 W/m 1,4 C 4,9 C 17,6 km/h (3 Bft)
07/12/2008 21:00 7,6 C 62 % 1020,5 hPa 0,0 l/m 12,4 km/h (3 Bft) O-NO 0,00 h 0,051 mm 0 W/m 0,7 C 5,4 C 15,9 km/h (3 Bft)
07/12/2008 22:00 7,1 C 56 % 1020,9 hPa 0,0 l/m 5,2 km/h (1 Bft) NO 0,00 h 0,051 mm 0 W/m -1,1 C 6,5 C 7,2 km/h (2 Bft)
07/12/2008 23:00 7,0 C 50 % 1021,3 hPa 0,0 l/m 3,7 km/h (1 Bft) O-NO 0,00 h 0,051 mm 0 W/m -2,7 C 6,7 C 5,1 km/h (1 Bft)
Min-Date _ 03/12/08 06/12/08 01/12/08 - 01/12/08 - - - - 07/12/08 03/12/08 01/12/08
_ Min-Heure 05:12 14:27 01:15 - 00:01 - - - - 05:51 06:23 00:04
Minimum _ 2,1 C 29 % 991,0 hPa - 0,0 km/h (0 Bft) - - - - -5,7 C -1,1 C 0,0 km/h (0 Bft)
Max-Date _ 05/12/08 01/12/08 07/12/08 01/12/08 01/12/08 - 01/12/08 06/12/08 03/12/08 05/12/08 05/12/08 05/12/08
_ Max-Heure 13:17 06:20 23:45 02:01 12:43 - 07:57 13:00 12:19 13:17 13:17 17:15
Maximum _ 14,7 C 100 % 1021,5 hPa 5,4 l/m 40,2 km/h
SO (6 Bft)
- 0,02 h 0,356 mm 441 W/m 14,7 C 14,7 C 51,5 km/h
SO (7 Bft)
Moyenne _ 7,6 C 70 % 1005,3 hPa #15,8 l/m 9,7 km/h (2 Bft) SO #45:48 h #12,155 mm 185 W/m 2,0 C 6,6 C 13,3 km/h (3 Bft)
Roquefort les pins